Lawncrest, Pennsylvania
Current Conditions -  °F | °C
As of 7:54 PM on Monday 24 Nov 2014 (Local Time) from KPNE Reporting Station
Clear Clear  
Wind Chill: 67°   Ceiling: Unl
Heat Index: 67°   Visibility: 10mi
Dew Point: 54°   Wind: 13mph
Humidity: 63%   Direction: 200°SSW
Pressure: 29.72"   Gusts: 18mph
Location:  40.063°N, 75.0797°W
Report Text: KPNE 250054Z AUTO 20011G16KT 10SM CLR 19/12 A2972 RMK AO2 SLP062 T01940122 TSNO $
Loading
Personal Weather Stations






























Interactive Weather Map New forecast layout! Learn more

10-Day Weather Forecast

Advertisements
Track Severe Weather on mobile